sensor_id;sensor_type;location;lat;lon;timestamp;temperature;humidity
14349;DHT22;7258;50.376;8.742;2023-05-29T00:02:01;13.20;99.90
14349;DHT22;7258;50.376;8.742;2023-05-29T00:04:04;13.20;99.90
14349;DHT22;7258;50.376;8.742;2023-05-29T00:06:07;13.20;99.90
14349;DHT22;7258;50.376;8.742;2023-05-29T00:08:10;13.20;99.90
14349;DHT22;7258;50.376;8.742;2023-05-29T00:10:13;13.10;99.90
14349;DHT22;7258;50.376;8.742;2023-05-29T00:12:17;13.10;99.90
14349;DHT22;7258;50.376;8.742;2023-05-29T00:14:20;13.10;99.90
14349;DHT22;7258;50.376;8.742;2023-05-29T00:16:25;13.10;99.90
14349;DHT22;7258;50.376;8.742;2023-05-29T00:18:28;13.10;99.90
14349;DHT22;7258;50.376;8.742;2023-05-29T00:20:31;13.10;99.90
14349;DHT22;7258;50.376;8.742;2023-05-29T00:22:36;13.10;99.90
14349;DHT22;7258;50.376;8.742;2023-05-29T00:24:39;13.10;99.90
14349;DHT22;7258;50.376;8.742;2023-05-29T00:26:43;13.10;99.90
14349;DHT22;7258;50.376;8.742;2023-05-29T00:28:46;13.00;99.90
14349;DHT22;7258;50.376;8.742;2023-05-29T00:30:49;13.00;99.90
14349;DHT22;7258;50.376;8.742;2023-05-29T00:32:53;13.10;99.90
14349;DHT22;7258;50.376;8.742;2023-05-29T00:34:56;13.00;99.90
14349;DHT22;7258;50.376;8.742;2023-05-29T00:36:59;13.00;99.90
14349;DHT22;7258;50.376;8.742;2023-05-29T00:39:03;12.90;99.90
14349;DHT22;7258;50.376;8.742;2023-05-29T00:41:06;12.90;99.90
14349;DHT22;7258;50.376;8.742;2023-05-29T00:43:09;12.90;99.90
14349;DHT22;7258;50.376;8.742;2023-05-29T00:45:12;12.90;99.90
14349;DHT22;7258;50.376;8.742;2023-05-29T00:47:15;12.80;99.90
14349;DHT22;7258;50.376;8.742;2023-05-29T00:49:21;12.80;99.90
14349;DHT22;7258;50.376;8.742;2023-05-29T00:51:25;12.70;99.90
14349;DHT22;7258;50.376;8.742;2023-05-29T00:53:29;12.70;99.90
14349;DHT22;7258;50.376;8.742;2023-05-29T00:55:33;12.70;99.90
14349;DHT22;7258;50.376;8.742;2023-05-29T00:57:36;12.70;99.90
14349;DHT22;7258;50.376;8.742;2023-05-29T00:59:41;12.70;99.90
14349;DHT22;7258;50.376;8.742;2023-05-29T01:01:44;12.70;99.90
14349;DHT22;7258;50.376;8.742;2023-05-29T01:03:48;12.70;99.90
14349;DHT22;7258;50.376;8.742;2023-05-29T01:05:52;12.60;99.90
14349;DHT22;7258;50.376;8.742;2023-05-29T01:07:55;12.70;99.90
14349;DHT22;7258;50.376;8.742;2023-05-29T01:09:58;12.70;99.90
14349;DHT22;7258;50.376;8.742;2023-05-29T01:12:10;12.60;99.90
14349;DHT22;7258;50.376;8.742;2023-05-29T01:14:23;12.60;99.90
14349;DHT22;7258;50.376;8.742;2023-05-29T01:16:33;12.60;99.90
14349;DHT22;7258;50.376;8.742;2023-05-29T01:18:41;12.50;99.90
14349;DHT22;7258;50.376;8.742;2023-05-29T01:20:52;12.50;99.90
14349;DHT22;7258;50.376;8.742;2023-05-29T01:26:01;12.40;99.90
14349;DHT22;7258;50.376;8.742;2023-05-29T01:28:12;12.30;99.90
14349;DHT22;7258;50.376;8.742;2023-05-29T01:30:15;12.30;99.90
14349;DHT22;7258;50.376;8.742;2023-05-29T01:32:20;12.30;99.90
14349;DHT22;7258;50.376;8.742;2023-05-29T01:34:23;12.30;99.90
14349;DHT22;7258;50.376;8.742;2023-05-29T01:36:27;12.20;99.90
14349;DHT22;7258;50.376;8.742;2023-05-29T01:38:30;12.20;99.90
14349;DHT22;7258;50.376;8.742;2023-05-29T01:40:33;12.20;99.90
14349;DHT22;7258;50.376;8.742;2023-05-29T01:42:36;12.30;99.90
14349;DHT22;7258;50.376;8.742;2023-05-29T01:44:42;12.30;99.90
14349;DHT22;7258;50.376;8.742;2023-05-29T01:46:46;12.40;99.90
14349;DHT22;7258;50.376;8.742;2023-05-29T01:48:49;12.40;99.90
14349;DHT22;7258;50.376;8.742;2023-05-29T01:50:56;12.40;99.90
14349;DHT22;7258;50.376;8.742;2023-05-29T01:53:00;12.40;99.90
14349;DHT22;7258;50.376;8.742;2023-05-29T01:55:04;12.50;99.90
14349;DHT22;7258;50.376;8.742;2023-05-29T01:57:07;12.50;99.90
14349;DHT22;7258;50.376;8.742;2023-05-29T01:59:10;12.60;99.90
14349;DHT22;7258;50.376;8.742;2023-05-29T02:01:16;12.60;99.90
14349;DHT22;7258;50.376;8.742;2023-05-29T02:03:19;12.60;99.90
14349;DHT22;7258;50.376;8.742;2023-05-29T02:05:22;12.70;99.90
14349;DHT22;7258;50.376;8.742;2023-05-29T02:07:25;12.70;99.90
14349;DHT22;7258;50.376;8.742;2023-05-29T02:09:28;12.70;99.90
14349;DHT22;7258;50.376;8.742;2023-05-29T02:11:32;12.70;99.90
14349;DHT22;7258;50.376;8.742;2023-05-29T02:13:35;12.70;99.90
14349;DHT22;7258;50.376;8.742;2023-05-29T02:15:38;12.70;99.90
14349;DHT22;7258;50.376;8.742;2023-05-29T02:17:42;12.70;99.90
14349;DHT22;7258;50.376;8.742;2023-05-29T02:19:46;12.70;99.90
14349;DHT22;7258;50.376;8.742;2023-05-29T02:21:48;12.70;99.90
14349;DHT22;7258;50.376;8.742;2023-05-29T02:23:51;12.70;99.90
14349;DHT22;7258;50.376;8.742;2023-05-29T02:25:54;12.60;99.90
14349;DHT22;7258;50.376;8.742;2023-05-29T02:27:57;12.60;99.90
14349;DHT22;7258;50.376;8.742;2023-05-29T02:30:00;12.50;99.90
14349;DHT22;7258;50.376;8.742;2023-05-29T02:32:04;12.40;99.90
14349;DHT22;7258;50.376;8.742;2023-05-29T02:34:08;12.40;99.90
14349;DHT22;7258;50.376;8.742;2023-05-29T02:36:11;12.40;99.90
14349;DHT22;7258;50.376;8.742;2023-05-29T02:38:14;12.40;99.90
14349;DHT22;7258;50.376;8.742;2023-05-29T02:40:18;12.30;99.90
14349;DHT22;7258;50.376;8.742;2023-05-29T02:42:21;12.30;99.90
14349;DHT22;7258;50.376;8.742;2023-05-29T02:44:24;12.30;99.90
14349;DHT22;7258;50.376;8.742;2023-05-29T02:46:27;12.20;99.90
14349;DHT22;7258;50.376;8.742;2023-05-29T02:48:30;12.20;99.90
14349;DHT22;7258;50.376;8.742;2023-05-29T02:50:34;12.10;99.90
14349;DHT22;7258;50.376;8.742;2023-05-29T02:52:37;12.10;99.90
14349;DHT22;7258;50.376;8.742;2023-05-29T02:54:41;12.10;99.90
14349;DHT22;7258;50.376;8.742;2023-05-29T02:56:44;12.10;99.90
14349;DHT22;7258;50.376;8.742;2023-05-29T02:58:47;12.00;99.90
14349;DHT22;7258;50.376;8.742;2023-05-29T03:00:50;12.00;99.90
14349;DHT22;7258;50.376;8.742;2023-05-29T03:02:54;12.00;99.90
14349;DHT22;7258;50.376;8.742;2023-05-29T03:04:57;12.00;99.90
14349;DHT22;7258;50.376;8.742;2023-05-29T03:07:01;12.00;99.90
14349;DHT22;7258;50.376;8.742;2023-05-29T03:09:04;12.00;99.90
14349;DHT22;7258;50.376;8.742;2023-05-29T03:11:08;12.00;99.90
14349;DHT22;7258;50.376;8.742;2023-05-29T03:13:12;11.90;99.90
14349;DHT22;7258;50.376;8.742;2023-05-29T03:15:16;11.90;99.90
14349;DHT22;7258;50.376;8.742;2023-05-29T03:17:21;11.90;99.90
14349;DHT22;7258;50.376;8.742;2023-05-29T03:19:25;11.90;99.90
14349;DHT22;7258;50.376;8.742;2023-05-29T03:21:28;11.80;99.90
14349;DHT22;7258;50.376;8.742;2023-05-29T03:23:32;11.90;99.90
14349;DHT22;7258;50.376;8.742;2023-05-29T03:25:35;12.00;99.90
14349;DHT22;7258;50.376;8.742;2023-05-29T03:27:38;12.00;99.90
14349;DHT22;7258;50.376;8.742;2023-05-29T03:29:41;12.00;99.90
14349;DHT22;7258;50.376;8.742;2023-05-29T03:31:43;12.00;99.90
14349;DHT22;7258;50.376;8.742;2023-05-29T03:33:49;12.00;99.90
14349;DHT22;7258;50.376;8.742;2023-05-29T03:35:52;12.00;99.90
14349;DHT22;7258;50.376;8.742;2023-05-29T03:37:55;11.90;99.90
14349;DHT22;7258;50.376;8.742;2023-05-29T03:39:59;11.90;99.90
14349;DHT22;7258;50.376;8.742;2023-05-29T03:42:04;11.90;99.90
14349;DHT22;7258;50.376;8.742;2023-05-29T03:44:07;11.80;99.90
14349;DHT22;7258;50.376;8.742;2023-05-29T03:46:11;11.80;99.90
14349;DHT22;7258;50.376;8.742;2023-05-29T03:48:14;11.80;99.90
14349;DHT22;7258;50.376;8.742;2023-05-29T03:50:17;11.70;99.90
14349;DHT22;7258;50.376;8.742;2023-05-29T03:52:20;11.70;99.90
14349;DHT22;7258;50.376;8.742;2023-05-29T03:54:24;11.70;99.90
14349;DHT22;7258;50.376;8.742;2023-05-29T03:56:28;11.70;99.90
14349;DHT22;7258;50.376;8.742;2023-05-29T03:58:31;11.80;99.90
14349;DHT22;7258;50.376;8.742;2023-05-29T04:00:34;11.80;99.90
14349;DHT22;7258;50.376;8.742;2023-05-29T04:02:38;11.80;99.90
14349;DHT22;7258;50.376;8.742;2023-05-29T04:04:41;11.80;99.90
14349;DHT22;7258;50.376;8.742;2023-05-29T04:06:44;11.80;99.90
14349;DHT22;7258;50.376;8.742;2023-05-29T04:08:47;11.70;99.90
14349;DHT22;7258;50.376;8.742;2023-05-29T04:10:50;11.70;99.90
14349;DHT22;7258;50.376;8.742;2023-05-29T04:12:57;11.70;99.90
14349;DHT22;7258;50.376;8.742;2023-05-29T04:15:00;11.70;99.90
14349;DHT22;7258;50.376;8.742;2023-05-29T04:17:03;11.70;99.90
14349;DHT22;7258;50.376;8.742;2023-05-29T04:19:06;11.70;99.90
14349;DHT22;7258;50.376;8.742;2023-05-29T04:21:09;11.70;99.90
14349;DHT22;7258;50.376;8.742;2023-05-29T04:23:13;11.80;99.90
14349;DHT22;7258;50.376;8.742;2023-05-29T04:25:16;11.80;99.90
14349;DHT22;7258;50.376;8.742;2023-05-29T04:27:19;11.90;99.90
14349;DHT22;7258;50.376;8.742;2023-05-29T04:29:23;11.90;99.90
14349;DHT22;7258;50.376;8.742;2023-05-29T04:31:26;12.00;99.90
14349;DHT22;7258;50.376;8.742;2023-05-29T04:33:29;12.10;99.90
14349;DHT22;7258;50.376;8.742;2023-05-29T04:35:32;12.10;99.90
14349;DHT22;7258;50.376;8.742;2023-05-29T04:37:36;12.20;99.90
14349;DHT22;7258;50.376;8.742;2023-05-29T04:39:39;12.20;99.90
14349;DHT22;7258;50.376;8.742;2023-05-29T04:41:42;12.30;99.90
14349;DHT22;7258;50.376;8.742;2023-05-29T04:43:45;12.40;99.90
14349;DHT22;7258;50.376;8.742;2023-05-29T04:45:51;12.40;99.90
14349;DHT22;7258;50.376;8.742;2023-05-29T04:47:54;12.50;99.90
14349;DHT22;7258;50.376;8.742;2023-05-29T04:49:57;12.60;99.90
14349;DHT22;7258;50.376;8.742;2023-05-29T04:52:01;12.70;99.90
14349;DHT22;7258;50.376;8.742;2023-05-29T04:54:04;12.80;99.90
14349;DHT22;7258;50.376;8.742;2023-05-29T04:56:07;12.80;99.90
14349;DHT22;7258;50.376;8.742;2023-05-29T04:58:10;12.90;99.90
14349;DHT22;7258;50.376;8.742;2023-05-29T05:00:15;13.00;99.90
14349;DHT22;7258;50.376;8.742;2023-05-29T05:02:21;13.00;99.90
14349;DHT22;7258;50.376;8.742;2023-05-29T05:04:24;13.10;99.90
14349;DHT22;7258;50.376;8.742;2023-05-29T05:06:27;13.20;99.90
14349;DHT22;7258;50.376;8.742;2023-05-29T05:08:30;13.20;99.90
14349;DHT22;7258;50.376;8.742;2023-05-29T05:10:34;13.30;99.90
14349;DHT22;7258;50.376;8.742;2023-05-29T05:12:37;13.40;99.90
14349;DHT22;7258;50.376;8.742;2023-05-29T05:14:40;13.40;99.90
14349;DHT22;7258;50.376;8.742;2023-05-29T05:16:43;13.50;99.90
14349;DHT22;7258;50.376;8.742;2023-05-29T05:18:47;13.60;99.90
14349;DHT22;7258;50.376;8.742;2023-05-29T05:20:51;13.60;99.90
14349;DHT22;7258;50.376;8.742;2023-05-29T05:22:54;13.70;99.90
14349;DHT22;7258;50.376;8.742;2023-05-29T05:24:58;13.80;99.90
14349;DHT22;7258;50.376;8.742;2023-05-29T05:27:03;13.90;99.90
14349;DHT22;7258;50.376;8.742;2023-05-29T05:29:06;14.00;99.90
14349;DHT22;7258;50.376;8.742;2023-05-29T05:31:09;14.10;99.90
14349;DHT22;7258;50.376;8.742;2023-05-29T05:33:13;14.20;99.90
14349;DHT22;7258;50.376;8.742;2023-05-29T05:35:17;14.30;99.90
14349;DHT22;7258;50.376;8.742;2023-05-29T05:37:21;14.40;99.90
14349;DHT22;7258;50.376;8.742;2023-05-29T05:39:24;14.50;99.90
14349;DHT22;7258;50.376;8.742;2023-05-29T05:41:28;14.60;99.90
14349;DHT22;7258;50.376;8.742;2023-05-29T05:43:31;14.80;99.90
14349;DHT22;7258;50.376;8.742;2023-05-29T05:45:34;14.90;99.90
14349;DHT22;7258;50.376;8.742;2023-05-29T05:47:39;15.00;99.90
14349;DHT22;7258;50.376;8.742;2023-05-29T05:49:42;15.00;99.90
14349;DHT22;7258;50.376;8.742;2023-05-29T05:51:48;15.10;99.90
14349;DHT22;7258;50.376;8.742;2023-05-29T05:53:52;15.20;99.90
14349;DHT22;7258;50.376;8.742;2023-05-29T05:55:55;15.20;99.90
14349;DHT22;7258;50.376;8.742;2023-05-29T05:57:58;15.30;99.90
14349;DHT22;7258;50.376;8.742;2023-05-29T06:00:01;15.40;99.90
14349;DHT22;7258;50.376;8.742;2023-05-29T06:02:06;15.60;99.90
14349;DHT22;7258;50.376;8.742;2023-05-29T06:04:10;15.80;99.90
14349;DHT22;7258;50.376;8.742;2023-05-29T06:06:13;15.90;99.90
14349;DHT22;7258;50.376;8.742;2023-05-29T06:08:17;16.00;99.90
14349;DHT22;7258;50.376;8.742;2023-05-29T06:10:20;16.10;99.90
14349;DHT22;7258;50.376;8.742;2023-05-29T06:12:23;16.30;99.90
14349;DHT22;7258;50.376;8.742;2023-05-29T06:14:27;16.40;99.90
14349;DHT22;7258;50.376;8.742;2023-05-29T06:16:30;16.40;99.90
14349;DHT22;7258;50.376;8.742;2023-05-29T06:18:33;16.50;99.90
14349;DHT22;7258;50.376;8.742;2023-05-29T06:20:38;16.50;99.90
14349;DHT22;7258;50.376;8.742;2023-05-29T06:22:42;16.60;99.90
14349;DHT22;7258;50.376;8.742;2023-05-29T06:24:46;16.70;99.90
14349;DHT22;7258;50.376;8.742;2023-05-29T06:26:49;16.80;99.90
14349;DHT22;7258;50.376;8.742;2023-05-29T06:28:53;16.90;99.90
14349;DHT22;7258;50.376;8.742;2023-05-29T06:30:56;16.90;99.90
14349;DHT22;7258;50.376;8.742;2023-05-29T06:33:00;17.00;99.90
14349;DHT22;7258;50.376;8.742;2023-05-29T06:35:03;17.10;99.90
14349;DHT22;7258;50.376;8.742;2023-05-29T06:37:07;17.20;99.90
14349;DHT22;7258;50.376;8.742;2023-05-29T06:39:11;17.20;99.90
14349;DHT22;7258;50.376;8.742;2023-05-29T06:41:15;17.20;99.90
14349;DHT22;7258;50.376;8.742;2023-05-29T06:43:18;17.20;99.90
14349;DHT22;7258;50.376;8.742;2023-05-29T06:45:21;17.30;99.90
14349;DHT22;7258;50.376;8.742;2023-05-29T06:47:24;17.40;99.90
14349;DHT22;7258;50.376;8.742;2023-05-29T06:49:27;17.50;99.90
14349;DHT22;7258;50.376;8.742;2023-05-29T06:51:30;17.60;99.90
14349;DHT22;7258;50.376;8.742;2023-05-29T06:53:34;17.70;99.90
14349;DHT22;7258;50.376;8.742;2023-05-29T06:55:38;17.80;99.90
14349;DHT22;7258;50.376;8.742;2023-05-29T06:57:49;17.90;99.90
14349;DHT22;7258;50.376;8.742;2023-05-29T07:02:51;18.10;99.90
14349;DHT22;7258;50.376;8.742;2023-05-29T07:04:53;18.20;99.90
14349;DHT22;7258;50.376;8.742;2023-05-29T07:06:56;18.20;99.90
14349;DHT22;7258;50.376;8.742;2023-05-29T07:09:00;18.20;99.90
14349;DHT22;7258;50.376;8.742;2023-05-29T07:11:03;18.20;99.90
14349;DHT22;7258;50.376;8.742;2023-05-29T07:13:07;18.30;99.90
14349;DHT22;7258;50.376;8.742;2023-05-29T07:15:10;18.30;99.90
14349;DHT22;7258;50.376;8.742;2023-05-29T07:17:13;18.30;99.90
14349;DHT22;7258;50.376;8.742;2023-05-29T07:19:20;18.30;99.90
14349;DHT22;7258;50.376;8.742;2023-05-29T07:21:26;18.40;99.90
14349;DHT22;7258;50.376;8.742;2023-05-29T07:23:29;18.40;99.90
14349;DHT22;7258;50.376;8.742;2023-05-29T07:25:32;18.50;99.90
14349;DHT22;7258;50.376;8.742;2023-05-29T07:27:40;18.50;99.90
14349;DHT22;7258;50.376;8.742;2023-05-29T07:29:44;18.60;99.90
14349;DHT22;7258;50.376;8.742;2023-05-29T07:31:47;18.80;99.90
14349;DHT22;7258;50.376;8.742;2023-05-29T07:33:50;18.90;99.90
14349;DHT22;7258;50.376;8.742;2023-05-29T07:35:53;18.80;99.90
14349;DHT22;7258;50.376;8.742;2023-05-29T07:37:55;18.90;99.90
14349;DHT22;7258;50.376;8.742;2023-05-29T07:39:58;19.00;99.90
14349;DHT22;7258;50.376;8.742;2023-05-29T07:42:02;19.10;99.90
14349;DHT22;7258;50.376;8.742;2023-05-29T07:44:05;19.10;99.90
14349;DHT22;7258;50.376;8.742;2023-05-29T07:46:09;19.20;99.90
14349;DHT22;7258;50.376;8.742;2023-05-29T07:48:12;19.20;99.90
14349;DHT22;7258;50.376;8.742;2023-05-29T07:50:15;19.30;99.90
14349;DHT22;7258;50.376;8.742;2023-05-29T07:52:18;19.40;99.90
14349;DHT22;7258;50.376;8.742;2023-05-29T07:54:21;19.40;99.90
14349;DHT22;7258;50.376;8.742;2023-05-29T07:56:25;19.50;99.90
14349;DHT22;7258;50.376;8.742;2023-05-29T07:58:31;19.40;99.80
14349;DHT22;7258;50.376;8.742;2023-05-29T08:00:34;19.30;99.90
14349;DHT22;7258;50.376;8.742;2023-05-29T08:02:39;19.30;99.90
14349;DHT22;7258;50.376;8.742;2023-05-29T08:04:44;19.40;99.90
14349;DHT22;7258;50.376;8.742;2023-05-29T08:06:47;19.60;99.90
14349;DHT22;7258;50.376;8.742;2023-05-29T08:08:50;19.60;99.50
14349;DHT22;7258;50.376;8.742;2023-05-29T08:10:54;19.70;99.90
14349;DHT22;7258;50.376;8.742;2023-05-29T08:12:57;19.90;99.70
14349;DHT22;7258;50.376;8.742;2023-05-29T08:15:00;20.00;99.50
14349;DHT22;7258;50.376;8.742;2023-05-29T08:17:03;20.10;99.80
14349;DHT22;7258;50.376;8.742;2023-05-29T08:19:09;20.10;99.60
14349;DHT22;7258;50.376;8.742;2023-05-29T08:21:14;20.30;99.60
14349;DHT22;7258;50.376;8.742;2023-05-29T08:23:17;20.40;98.90
14349;DHT22;7258;50.376;8.742;2023-05-29T08:25:20;20.50;98.70
14349;DHT22;7258;50.376;8.742;2023-05-29T08:27:23;20.50;98.60
14349;DHT22;7258;50.376;8.742;2023-05-29T08:29:26;20.60;98.40
14349;DHT22;7258;50.376;8.742;2023-05-29T08:31:30;20.50;99.10
14349;DHT22;7258;50.376;8.742;2023-05-29T08:33:33;20.60;98.80
14349;DHT22;7258;50.376;8.742;2023-05-29T08:35:37;20.80;98.50
14349;DHT22;7258;50.376;8.742;2023-05-29T08:37:40;20.80;98.20
14349;DHT22;7258;50.376;8.742;2023-05-29T08:39:43;20.90;98.70
14349;DHT22;7258;50.376;8.742;2023-05-29T08:41:53;21.00;99.00
14349;DHT22;7258;50.376;8.742;2023-05-29T08:44:03;21.20;98.10
14349;DHT22;7258;50.376;8.742;2023-05-29T08:46:07;21.30;97.10
14349;DHT22;7258;50.376;8.742;2023-05-29T08:48:11;21.40;96.30
14349;DHT22;7258;50.376;8.742;2023-05-29T08:50:15;21.40;96.40
14349;DHT22;7258;50.376;8.742;2023-05-29T08:52:22;21.40;97.10
14349;DHT22;7258;50.376;8.742;2023-05-29T08:54:26;21.50;97.30
14349;DHT22;7258;50.376;8.742;2023-05-29T08:56:29;21.50;97.60
14349;DHT22;7258;50.376;8.742;2023-05-29T08:58:35;21.50;97.80
14349;DHT22;7258;50.376;8.742;2023-05-29T09:00:39;21.60;97.90
14349;DHT22;7258;50.376;8.742;2023-05-29T09:02:42;21.70;97.90
14349;DHT22;7258;50.376;8.742;2023-05-29T09:04:46;21.80;97.40
14349;DHT22;7258;50.376;8.742;2023-05-29T09:06:50;21.80;95.90
14349;DHT22;7258;50.376;8.742;2023-05-29T09:08:58;21.90;96.00
14349;DHT22;7258;50.376;8.742;2023-05-29T09:11:01;22.00;96.10
14349;DHT22;7258;50.376;8.742;2023-05-29T09:13:04;22.10;96.30
14349;DHT22;7258;50.376;8.742;2023-05-29T09:15:16;22.20;96.80
14349;DHT22;7258;50.376;8.742;2023-05-29T09:17:20;22.10;96.60
14349;DHT22;7258;50.376;8.742;2023-05-29T09:19:23;22.10;96.40
14349;DHT22;7258;50.376;8.742;2023-05-29T09:21:28;22.20;96.50
14349;DHT22;7258;50.376;8.742;2023-05-29T09:23:35;22.30;95.80
14349;DHT22;7258;50.376;8.742;2023-05-29T09:25:42;22.30;95.00
14349;DHT22;7258;50.376;8.742;2023-05-29T09:27:45;22.40;95.10
14349;DHT22;7258;50.376;8.742;2023-05-29T09:29:48;22.50;94.90
14349;DHT22;7258;50.376;8.742;2023-05-29T09:31:51;22.60;95.10
14349;DHT22;7258;50.376;8.742;2023-05-29T09:33:54;22.70;95.00
14349;DHT22;7258;50.376;8.742;2023-05-29T09:35:59;22.90;95.30
14349;DHT22;7258;50.376;8.742;2023-05-29T09:38:02;23.00;94.80
14349;DHT22;7258;50.376;8.742;2023-05-29T09:40:07;23.10;94.00
14349;DHT22;7258;50.376;8.742;2023-05-29T09:42:12;23.10;94.20
14349;DHT22;7258;50.376;8.742;2023-05-29T09:44:15;23.10;94.50
14349;DHT22;7258;50.376;8.742;2023-05-29T09:46:18;23.20;94.60
14349;DHT22;7258;50.376;8.742;2023-05-29T09:48:22;23.20;94.10
14349;DHT22;7258;50.376;8.742;2023-05-29T09:50:26;23.30;94.10
14349;DHT22;7258;50.376;8.742;2023-05-29T09:52:29;23.30;93.40
14349;DHT22;7258;50.376;8.742;2023-05-29T09:54:35;23.40;93.60
14349;DHT22;7258;50.376;8.742;2023-05-29T09:56:38;23.50;93.50
14349;DHT22;7258;50.376;8.742;2023-05-29T09:58:44;23.50;92.90
14349;DHT22;7258;50.376;8.742;2023-05-29T10:00:52;23.60;93.10
14349;DHT22;7258;50.376;8.742;2023-05-29T10:02:55;23.80;93.10
14349;DHT22;7258;50.376;8.742;2023-05-29T10:04:59;23.90;92.30
14349;DHT22;7258;50.376;8.742;2023-05-29T10:07:05;23.90;91.10
14349;DHT22;7258;50.376;8.742;2023-05-29T10:09:12;23.90;90.70
14349;DHT22;7258;50.376;8.742;2023-05-29T10:11:18;23.90;91.20
14349;DHT22;7258;50.376;8.742;2023-05-29T10:13:28;24.00;91.60
14349;DHT22;7258;50.376;8.742;2023-05-29T10:15:35;24.10;91.40
14349;DHT22;7258;50.376;8.742;2023-05-29T10:17:42;24.10;91.30
14349;DHT22;7258;50.376;8.742;2023-05-29T10:19:48;24.10;91.10
14349;DHT22;7258;50.376;8.742;2023-05-29T10:21:53;24.20;90.70
14349;DHT22;7258;50.376;8.742;2023-05-29T10:23:58;24.30;90.60
14349;DHT22;7258;50.376;8.742;2023-05-29T10:26:06;24.30;90.80
14349;DHT22;7258;50.376;8.742;2023-05-29T10:28:13;24.40;90.20
14349;DHT22;7258;50.376;8.742;2023-05-29T10:30:25;24.50;88.70
14349;DHT22;7258;50.376;8.742;2023-05-29T10:32:37;24.50;87.90
14349;DHT22;7258;50.376;8.742;2023-05-29T10:34:56;24.60;89.80
14349;DHT22;7258;50.376;8.742;2023-05-29T10:37:08;24.70;88.80
14349;DHT22;7258;50.376;8.742;2023-05-29T10:39:12;24.80;87.70
14349;DHT22;7258;50.376;8.742;2023-05-29T10:41:31;24.70;87.20
14349;DHT22;7258;50.376;8.742;2023-05-29T10:43:41;24.70;87.40
14349;DHT22;7258;50.376;8.742;2023-05-29T10:45:49;24.80;87.60
14349;DHT22;7258;50.376;8.742;2023-05-29T10:48:39;24.90;86.50
14349;DHT22;7258;50.376;8.742;2023-05-29T10:50:43;24.90;85.90
14349;DHT22;7258;50.376;8.742;2023-05-29T10:52:47;24.90;85.50
14349;DHT22;7258;50.376;8.742;2023-05-29T10:54:52;25.00;85.00
14349;DHT22;7258;50.376;8.742;2023-05-29T10:56:57;25.10;86.20
14349;DHT22;7258;50.376;8.742;2023-05-29T10:59:00;25.20;83.10
14349;DHT22;7258;50.376;8.742;2023-05-29T11:01:08;25.20;83.40
14349;DHT22;7258;50.376;8.742;2023-05-29T11:03:14;25.20;84.40
14349;DHT22;7258;50.376;8.742;2023-05-29T11:05:25;25.10;83.80
14349;DHT22;7258;50.376;8.742;2023-05-29T11:07:34;25.20;85.20
14349;DHT22;7258;50.376;8.742;2023-05-29T11:09:38;25.10;83.70
14349;DHT22;7258;50.376;8.742;2023-05-29T11:11:41;25.10;80.60
14349;DHT22;7258;50.376;8.742;2023-05-29T11:13:52;25.20;80.70
14349;DHT22;7258;50.376;8.742;2023-05-29T11:16:05;25.20;80.60
14349;DHT22;7258;50.376;8.742;2023-05-29T11:18:09;25.30;80.90
14349;DHT22;7258;50.376;8.742;2023-05-29T11:20:33;25.40;80.40
14349;DHT22;7258;50.376;8.742;2023-05-29T11:22:56;25.50;80.60
14349;DHT22;7258;50.376;8.742;2023-05-29T11:25:04;25.50;79.00
14349;DHT22;7258;50.376;8.742;2023-05-29T11:27:07;25.50;80.40
14349;DHT22;7258;50.376;8.742;2023-05-29T11:29:11;25.50;79.70
14349;DHT22;7258;50.376;8.742;2023-05-29T11:31:15;25.50;78.60
14349;DHT22;7258;50.376;8.742;2023-05-29T11:33:23;25.60;78.10
14349;DHT22;7258;50.376;8.742;2023-05-29T11:35:31;25.60;79.50
14349;DHT22;7258;50.376;8.742;2023-05-29T11:37:35;25.60;78.90
14349;DHT22;7258;50.376;8.742;2023-05-29T11:39:38;25.60;78.40
14349;DHT22;7258;50.376;8.742;2023-05-29T11:41:43;25.80;78.50
14349;DHT22;7258;50.376;8.742;2023-05-29T11:43:56;25.90;77.60
14349;DHT22;7258;50.376;8.742;2023-05-29T11:45:59;25.90;78.20
14349;DHT22;7258;50.376;8.742;2023-05-29T11:48:03;26.10;78.60
14349;DHT22;7258;50.376;8.742;2023-05-29T11:50:18;26.00;78.10
14349;DHT22;7258;50.376;8.742;2023-05-29T11:52:23;26.00;78.10
14349;DHT22;7258;50.376;8.742;2023-05-29T11:54:26;26.00;78.60
14349;DHT22;7258;50.376;8.742;2023-05-29T11:56:29;26.00;78.10
14349;DHT22;7258;50.376;8.742;2023-05-29T11:58:33;25.90;77.60
14349;DHT22;7258;50.376;8.742;2023-05-29T12:00:37;25.80;77.10
14349;DHT22;7258;50.376;8.742;2023-05-29T12:02:40;25.70;77.10
14349;DHT22;7258;50.376;8.742;2023-05-29T12:04:44;25.70;77.10
14349;DHT22;7258;50.376;8.742;2023-05-29T12:07:02;25.80;77.50
14349;DHT22;7258;50.376;8.742;2023-05-29T12:09:06;25.90;78.80
14349;DHT22;7258;50.376;8.742;2023-05-29T12:11:09;25.90;78.00
14349;DHT22;7258;50.376;8.742;2023-05-29T12:13:12;26.00;77.50
14349;DHT22;7258;50.376;8.742;2023-05-29T12:15:16;26.10;76.00
14349;DHT22;7258;50.376;8.742;2023-05-29T12:17:20;26.10;76.10
14349;DHT22;7258;50.376;8.742;2023-05-29T12:19:23;26.00;76.90
14349;DHT22;7258;50.376;8.742;2023-05-29T12:21:27;26.10;77.00
14349;DHT22;7258;50.376;8.742;2023-05-29T12:23:30;26.30;77.70
14349;DHT22;7258;50.376;8.742;2023-05-29T12:25:35;26.40;77.10
14349;DHT22;7258;50.376;8.742;2023-05-29T12:27:40;26.50;76.30
14349;DHT22;7258;50.376;8.742;2023-05-29T12:29:48;26.60;76.80
14349;DHT22;7258;50.376;8.742;2023-05-29T12:31:57;26.60;77.80
14349;DHT22;7258;50.376;8.742;2023-05-29T12:34:01;26.60;79.90
14349;DHT22;7258;50.376;8.742;2023-05-29T12:36:07;26.80;78.90
14349;DHT22;7258;50.376;8.742;2023-05-29T12:38:11;26.80;78.80
14349;DHT22;7258;50.376;8.742;2023-05-29T12:40:15;26.90;80.10
14349;DHT22;7258;50.376;8.742;2023-05-29T12:42:19;27.10;79.00
14349;DHT22;7258;50.376;8.742;2023-05-29T12:44:26;27.10;78.10
14349;DHT22;7258;50.376;8.742;2023-05-29T12:46:36;26.90;78.60
14349;DHT22;7258;50.376;8.742;2023-05-29T12:48:40;26.80;79.30
14349;DHT22;7258;50.376;8.742;2023-05-29T12:50:42;26.70;78.40
14349;DHT22;7258;50.376;8.742;2023-05-29T12:52:45;26.60;78.00
14349;DHT22;7258;50.376;8.742;2023-05-29T12:54:48;26.70;79.20
14349;DHT22;7258;50.376;8.742;2023-05-29T12:56:51;26.70;78.60
14349;DHT22;7258;50.376;8.742;2023-05-29T12:58:56;26.70;78.00
14349;DHT22;7258;50.376;8.742;2023-05-29T13:00:59;26.80;77.80
14349;DHT22;7258;50.376;8.742;2023-05-29T13:03:02;26.90;78.40
14349;DHT22;7258;50.376;8.742;2023-05-29T13:05:06;27.00;76.40
14349;DHT22;7258;50.376;8.742;2023-05-29T13:07:10;27.00;76.40
14349;DHT22;7258;50.376;8.742;2023-05-29T13:09:13;27.00;75.10
14349;DHT22;7258;50.376;8.742;2023-05-29T13:11:16;27.00;76.00
14349;DHT22;7258;50.376;8.742;2023-05-29T13:13:19;26.90;75.70
14349;DHT22;7258;50.376;8.742;2023-05-29T13:15:25;26.80;75.80
14349;DHT22;7258;50.376;8.742;2023-05-29T13:17:28;26.70;75.90
14349;DHT22;7258;50.376;8.742;2023-05-29T13:19:34;26.50;76.90
14349;DHT22;7258;50.376;8.742;2023-05-29T13:21:37;26.50;78.60
14349;DHT22;7258;50.376;8.742;2023-05-29T13:23:40;26.50;77.80
14349;DHT22;7258;50.376;8.742;2023-05-29T13:25:43;26.50;77.90